Time;durP1;ratioP1;P1;durP2;ratioP2;P2;SDS_P1;SDS_P2;PMS_P1;PMS_P2;Temp;Humidity;BMP_temperature;BMP_pressure;BME280_temperature;BME280_humidity;BME280_pressure;Samples;Min_cycle;Max_cycle;Signal;HPM_P1;HPM_P2
2021/03/27 00:01:56;;;;;;;;;;;22.10;34.90;;;;;;5066672;28;20032;-71
2021/03/27 00:04:26;;;;;;;1.45;0.28;;;22.10;34.80;;;;;;5088809;28;19908;-72
2021/03/27 00:06:55;;;;;;;3.38;0.85;;;22.10;34.80;;;;;;5079101;28;20024;-71
2021/03/27 00:09:30;;;;;;;2.75;0.50;;;22.00;34.70;;;;;;5073723;28;20063;-71
2021/03/27 00:12:10;;;;;;;2.47;0.60;;;22.00;34.80;;;;;;5078004;28;20031;-72
2021/03/27 00:14:55;;;;;;;2.80;0.70;;;22.00;34.70;;;;;;5077759;28;20039;-72
2021/03/27 00:17:51;;;;;;;2.88;0.60;;;22.00;34.70;;;;;;5060898;28;20032;-71
2021/03/27 00:20:25;;;;;;;1.83;0.73;;;22.00;34.80;;;;;;4996115;28;20042;-72
2021/03/27 00:23:18;;;;;;;1.48;0.50;;;22.00;35.00;;;;;;4987428;28;20035;-72
2021/03/27 00:25:54;;;;;;;0.70;0.38;;;22.00;35.10;;;;;;4949588;28;20046;-72
2021/03/27 00:28:19;;;;;;;2.10;0.60;;;21.90;35.10;;;;;;4941528;29;20046;-71
2021/03/27 00:31:15;;;;;;;2.60;0.30;;;21.90;35.00;;;;;;4936067;29;20039;-71
2021/03/27 00:33:45;;;;;;;2.38;0.55;;;21.80;35.10;;;;;;4933705;29;20048;-72
2021/03/27 00:36:19;;;;;;;3.85;0.75;;;21.90;35.00;;;;;;4935862;29;20059;-72
2021/03/27 00:38:48;;;;;;;1.35;0.60;;;21.90;35.10;;;;;;4943125;28;20107;-72
2021/03/27 00:41:19;;;;;;;1.50;0.20;;;21.90;34.90;;;;;;4935289;29;20071;-71
2021/03/27 00:43:50;;;;;;;2.25;0.60;;;21.80;35.00;;;;;;4936469;29;20139;-71
2021/03/27 00:46:16;;;;;;;0.77;0.40;;;21.80;34.80;;;;;;4940205;29;20031;-71
2021/03/27 00:48:47;;;;;;;0.95;0.40;;;21.80;35.10;;;;;;4939181;29;20050;-71
2021/03/27 00:51:30;;;;;;;3.47;0.70;;;21.70;35.40;;;;;;4941645;28;20043;-71
2021/03/27 00:54:01;;;;;;;2.95;0.57;;;21.70;34.50;;;;;;4935798;29;20614;-71
2021/03/27 00:56:29;;;;;;;3.95;0.40;;;21.60;34.70;;;;;;4945553;28;20097;-71
2021/03/27 00:58:58;;;;;;;3.15;0.80;;;21.60;34.50;;;;;;5007713;28;20066;-71
2021/03/27 01:01:25;;;;;;;2.75;1.05;;;21.60;34.50;;;;;;5011498;28;20104;-71
2021/03/27 01:03:55;;;;;;;3.38;0.60;;;21.60;34.70;;;;;;5066199;28;20082;-71
2021/03/27 01:06:30;;;;;;;1.73;0.73;;;21.60;34.70;;;;;;5056860;28;20388;-72
2021/03/27 01:08:55;;;;;;;4.35;0.70;;;21.50;34.90;;;;;;5057814;28;20399;-72
2021/03/27 01:11:25;;;;;;;1.85;0.90;;;21.50;34.80;;;;;;5070502;28;20020;-72
2021/03/27 01:13:53;;;;;;;2.55;0.65;;;21.50;34.90;;;;;;5060367;28;20028;-72
2021/03/27 01:16:24;;;;;;;1.17;0.45;;;21.50;34.90;;;;;;5074684;28;20076;-72
2021/03/27 01:19:03;;;;;;;1.92;0.60;;;21.50;35.10;;;;;;5075450;28;20088;-72
2021/03/27 01:21:35;;;;;;;3.10;0.82;;;21.50;34.80;;;;;;5051615;28;20008;-71
2021/03/27 01:24:02;;;;;;;2.75;0.93;;;21.50;34.60;;;;;;5059660;28;20041;-71
2021/03/27 01:26:30;;;;;;;2.60;0.70;;;21.40;34.80;;;;;;5071376;28;20077;-72
2021/03/27 01:29:02;;;;;;;1.13;0.52;;;21.50;35.00;;;;;;5079690;28;20024;-71
2021/03/27 01:31:32;;;;;;;3.10;0.70;;;21.40;34.40;;;;;;5074342;28;20020;-71
2021/03/27 01:34:00;;;;;;;3.33;0.85;;;21.40;34.60;;;;;;5064804;28;20040;-71
2021/03/27 01:36:43;;;;;;;1.13;0.50;;;21.40;34.40;;;;;;5075479;28;20043;-71
2021/03/27 01:39:13;;;;;;;0.80;0.45;;;21.40;34.70;;;;;;5075838;28;20031;-71
2021/03/27 01:42:01;;;;;;;3.55;0.50;;;21.40;35.10;;;;;;5075237;28;20056;-72
2021/03/27 01:44:40;;;;;;;2.20;0.38;;;21.40;34.30;;;;;;5093405;28;20396;-71
2021/03/27 01:47:15;;;;;;;2.85;0.60;;;21.30;34.40;;;;;;5076752;28;20202;-71
2021/03/27 01:49:53;;;;;;;5.70;0.83;;;21.30;34.30;;;;;;5081679;28;20100;-71
2021/03/27 01:52:34;;;;;;;2.55;0.63;;;21.30;34.50;;;;;;5056049;28;20485;-72
2021/03/27 01:55:18;;;;;;;2.78;0.63;;;21.30;34.60;;;;;;5070032;28;20012;-71
2021/03/27 01:58:04;;;;;;;3.58;0.70;;;21.30;34.70;;;;;;5091965;28;20034;-71
2021/03/27 02:00:35;;;;;;;0.45;0.15;;;21.30;34.70;;;;;;5060476;28;20008;-71
2021/03/27 02:03:16;;;;;;;3.35;0.82;;;21.30;34.60;;;;;;5066680;28;20150;-71
2021/03/27 02:06:01;;;;;;;3.22;0.85;;;21.30;34.60;;;;;;5058688;28;20028;-71
2021/03/27 02:08:39;;;;;;;3.88;0.60;;;21.30;34.60;;;;;;5043155;28;20166;-71
2021/03/27 02:11:23;;;;;;;0.25;0.05;;;21.30;34.80;;;;;;5064171;28;20515;-71
2021/03/27 02:14:03;;;;;;;0.80;0.55;;;21.30;34.80;;;;;;5064187;28;20036;-71
2021/03/27 02:16:35;;;;;;;3.85;0.80;;;21.30;34.50;;;;;;5071683;28;20024;-71
2021/03/27 02:19:16;;;;;;;2.17;0.40;;;21.20;34.50;;;;;;5060141;28;20020;-71
2021/03/27 02:21:58;;;;;;;1.60;0.45;;;21.20;34.30;;;;;;5084423;28;20122;-72
2021/03/27 02:24:33;;;;;;;1.58;0.65;;;21.20;34.20;;;;;;5075267;28;20034;-72
2021/03/27 02:27:20;;;;;;;3.60;0.85;;;21.20;34.60;;;;;;5092820;28;20042;-72
2021/03/27 02:30:13;;;;;;;0.75;0.32;;;21.20;34.40;;;;;;5074031;28;20103;-72
2021/03/27 02:32:47;;;;;;;1.35;0.63;;;21.20;34.70;;;;;;5078362;28;20103;-72
2021/03/27 02:35:51;;;;;;;4.55;0.80;;;21.10;34.60;;;;;;5074802;28;20115;-72
2021/03/27 02:38:35;;;;;;;0.93;0.28;;;21.10;34.40;;;;;;5074411;28;20024;-72
2021/03/27 02:41:38;;;;;;;3.20;0.98;;;21.10;34.40;;;;;;5073547;28;20036;-71
2021/03/27 02:44:07;;;;;;;6.90;1.05;;;21.00;34.30;;;;;;5085192;28;20023;-72
2021/03/27 02:46:38;;;;;;;3.38;0.90;;;21.00;34.50;;;;;;5085998;28;20020;-71
2021/03/27 02:49:33;;;;;;;5.07;0.82;;;21.00;34.90;;;;;;5058811;28;20032;-71
2021/03/27 02:52:27;;;;;;;7.95;0.90;;;21.00;34.80;;;;;;5088354;28;20047;-71
2021/03/27 02:55:02;;;;;;;4.10;1.10;;;21.00;34.60;;;;;;5069857;28;20074;-72
2021/03/27 02:57:39;;;;;;;5.72;1.00;;;20.90;34.90;;;;;;5081785;28;20035;-71
2021/03/27 03:00:17;;;;;;;1.45;0.60;;;20.90;34.80;;;;;;5071197;28;20523;-70
2021/03/27 03:02:52;;;;;;;2.47;0.40;;;20.90;34.90;;;;;;5077426;28;20047;-70
2021/03/27 03:05:36;;;;;;;1.98;0.52;;;20.90;35.00;;;;;;5066917;28;20038;-71
2021/03/27 03:08:23;;;;;;;2.60;0.68;;;20.90;34.40;;;;;;5092184;28;20024;-70
2021/03/27 03:11:14;;;;;;;3.47;0.88;;;20.90;34.80;;;;;;5074589;28;20737;-71
2021/03/27 03:13:43;;;;;;;2.53;0.60;;;20.90;34.80;;;;;;5092833;28;20074;-71
2021/03/27 03:16:43;;;;;;;0.75;0.28;;;20.90;34.60;;;;;;5092306;28;20114;-70
2021/03/27 03:19:15;;;;;;;1.85;0.20;;;20.90;34.80;;;;;;5089277;28;20021;-70
2021/03/27 03:21:59;;;;;;;2.53;0.68;;;20.80;34.40;;;;;;5042654;28;20024;-71
2021/03/27 03:24:36;;;;;;;2.42;0.93;;;20.80;34.30;;;;;;5058239;28;20027;-70
2021/03/27 03:27:02;;;;;;;4.20;1.08;;;20.80;34.30;;;;;;5074689;28;20207;-70
2021/03/27 03:29:56;;;;;;;2.95;0.98;;;20.80;34.30;;;;;;5103112;28;20035;-71
2021/03/27 03:32:43;;;;;;;6.35;0.80;;;20.80;34.70;;;;;;4993803;28;20096;-70
2021/03/27 03:35:20;;;;;;;4.20;0.90;;;20.80;34.30;;;;;;4992896;28;20034;-70
2021/03/27 03:38:03;;;;;;;0.28;0.25;;;20.80;34.30;;;;;;4987221;28;20394;-71
2021/03/27 03:41:09;;;;;;;4.15;0.73;;;20.80;34.30;;;;;;4994557;28;20113;-71
2021/03/27 03:44:00;;;;;;;6.32;1.15;;;20.80;34.40;;;;;;4921139;29;20514;-71
2021/03/27 03:46:32;;;;;;;4.68;0.57;;;20.80;34.00;;;;;;4922078;29;20051;-71
2021/03/27 03:49:22;;;;;;;6.65;1.60;;;20.80;34.00;;;;;;4927270;29;20040;-71
2021/03/27 03:52:13;;;;;;;5.38;1.27;;;20.80;34.10;;;;;;4934468;29;20027;-71
2021/03/27 03:55:09;;;;;;;4.18;1.30;;;20.80;34.20;;;;;;4936293;29;20036;-72
2021/03/27 03:57:53;;;;;;;1.02;0.60;;;20.70;34.20;;;;;;4936189;29;20039;-72
2021/03/27 04:00:23;;;;;;;7.85;1.38;;;20.70;34.20;;;;;;4936595;29;20043;-72
2021/03/27 04:02:53;;;;;;;4.22;1.30;;;20.70;34.30;;;;;;4928828;29;20035;-71
2021/03/27 04:05:40;;;;;;;5.85;1.00;;;20.70;34.20;;;;;;4925733;29;20067;-72
2021/03/27 04:08:26;;;;;;;3.78;0.77;;;20.70;34.20;;;;;;4921695;28;20050;-72
2021/03/27 04:10:57;;;;;;;5.35;0.70;;;20.70;34.50;;;;;;4999736;28;20029;-72
2021/03/27 04:13:39;;;;;;;1.88;0.45;;;20.70;34.50;;;;;;4962476;28;20042;-72
2021/03/27 04:16:07;;;;;;;5.43;0.93;;;20.70;34.40;;;;;;4975792;28;20120;-71
2021/03/27 04:18:43;;;;;;;2.67;0.70;;;20.70;34.40;;;;;;4996694;28;20040;-71
2021/03/27 04:21:34;;;;;;;4.32;0.45;;;20.70;34.60;;;;;;5046705;28;20570;-71
2021/03/27 04:24:07;;;;;;;6.97;1.40;;;20.60;34.40;;;;;;5048349;28;20225;-70
2021/03/27 04:26:34;;;;;;;5.65;0.98;;;20.70;34.40;;;;;;5036042;28;20033;-72
2021/03/27 04:29:27;;;;;;;8.50;1.27;;;20.60;34.30;;;;;;5062721;28;20056;-72
2021/03/27 04:32:14;;;;;;;4.25;0.88;;;20.60;34.60;;;;;;5070924;28;20024;-72
2021/03/27 04:34:53;;;;;;;4.82;1.15;;;20.60;34.80;;;;;;5065981;28;20029;-72
2021/03/27 04:37:55;;;;;;;6.72;1.50;;;20.60;34.80;;;;;;5073668;28;20025;-73
2021/03/27 04:40:49;;;;;;;5.63;0.70;;;20.60;34.80;;;;;;5080991;28;20059;-71
2021/03/27 04:43:32;;;;;;;4.82;1.10;;;20.60;34.80;;;;;;5072155;28;20031;-72
2021/03/27 04:46:17;;;;;;;1.15;0.63;;;20.50;34.90;;;;;;5073178;28;20545;-72
2021/03/27 04:48:50;;;;;;;1.98;0.40;;;20.50;35.00;;;;;;5073647;28;20038;-72
2021/03/27 04:51:34;;;;;;;2.17;0.43;;;20.50;35.40;;;;;;5060184;28;20032;-72
2021/03/27 04:54:11;;;;;;;1.02;0.30;;;20.50;35.60;;;;;;5072714;28;20411;-72
2021/03/27 04:56:50;;;;;;;3.15;0.73;;;20.50;35.80;;;;;;5075523;28;20493;-72
2021/03/27 04:59:47;;;;;;;4.00;0.50;;;20.50;35.60;;;;;;5058283;28;20153;-72
2021/03/27 05:02:15;;;;;;;2.17;0.22;;;20.50;35.70;;;;;;5077461;28;20054;-73
2021/03/27 05:05:12;;;;;;;1.20;0.65;;;20.40;35.40;;;;;;5059166;28;20032;-72
2021/03/27 05:08:01;;;;;;;0.20;0.17;;;20.40;35.60;;;;;;5070154;28;20062;-73
2021/03/27 05:10:52;;;;;;;0.00;0.00;;;20.40;35.80;;;;;;5074279;28;20040;-72
2021/03/27 05:13:37;;;;;;;0.52;0.20;;;20.50;36.10;;;;;;5078632;28;20078;-72
2021/03/27 05:16:21;;;;;;;3.55;0.43;;;20.50;36.20;;;;;;5075243;28;20032;-72
2021/03/27 05:19:25;;;;;;;0.98;0.10;;;20.50;36.30;;;;;;5071200;28;20033;-71
2021/03/27 05:22:34;;;;;;;4.03;0.30;;;20.50;36.50;;;;;;5012011;28;20117;-72
2021/03/27 05:25:05;;;;;;;0.28;0.25;;;20.50;36.30;;;;;;4933232;29;20036;-72
2021/03/27 05:27:44;;;;;;;2.10;0.50;;;20.60;36.90;;;;;;4917824;29;20052;-72
2021/03/27 05:30:20;;;;;;;1.83;0.15;;;20.50;36.40;;;;;;4920771;29;20042;-72
2021/03/27 05:36:27;;;;;;;0.68;0.30;;;20.50;36.20;;;;;;4931091;29;20175;-72
2021/03/27 05:39:30;;;;;;;;;;;20.50;36.10;;;;;;4931401;29;20043;-72
2021/03/27 05:42:33;;;;;;;0.10;0.10;;;20.50;36.00;;;;;;4914904;29;19919;-72
2021/03/27 05:45:38;;;;;;;0.20;0.10;;;20.50;35.90;;;;;;4886428;29;20443;-72
2021/03/27 05:48:18;;;;;;;1.40;0.20;;;20.50;35.90;;;;;;4914080;29;20393;-72
2021/03/27 05:51:01;;;;;;;0.38;0.30;;;20.50;35.80;;;;;;4913261;29;20059;-71
2021/03/27 05:53:39;;;;;;;2.00;0.20;;;20.40;35.60;;;;;;4878205;29;20123;-71
2021/03/27 05:56:41;;;;;;;0.22;0.10;;;20.40;35.70;;;;;;4945332;28;20511;-72
2021/03/27 05:59:25;;;;;;;0.30;0.22;;;20.40;35.60;;;;;;4972230;28;20027;-71
2021/03/27 06:02:04;;;;;;;0.00;0.00;;;20.40;35.80;;;;;;5013099;28;20187;-71
2021/03/27 06:05:15;;;;;;;0.80;0.38;;;20.40;35.80;;;;;;5049299;28;20047;-71
2021/03/27 06:08:03;;;;;;;0.38;0.22;;;20.40;36.20;;;;;;5048518;28;20049;-71
2021/03/27 06:10:57;;;;;;;2.13;0.10;;;20.40;36.40;;;;;;5068743;28;20067;-71
2021/03/27 06:13:30;;;;;;;0.85;0.13;;;20.40;36.50;;;;;;5051689;28;20036;-71
2021/03/27 06:16:17;;;;;;;0.15;0.15;;;20.40;36.60;;;;;;5052467;28;20048;-72
2021/03/27 06:19:01;;;;;;;0.10;0.10;;;20.40;36.30;;;;;;5072303;28;20590;-72
2021/03/27 06:21:54;;;;;;;0.35;0.35;;;20.40;36.10;;;;;;5054792;28;20029;-72
2021/03/27 06:24:41;;;;;;;0.57;0.35;;;20.40;36.20;;;;;;5056964;28;20028;-72
2021/03/27 06:27:12;;;;;;;2.33;0.25;;;20.40;36.20;;;;;;5072424;28;20032;-72
2021/03/27 06:29:56;;;;;;;0.32;0.15;;;20.40;36.20;;;;;;5067270;28;20069;-72
2021/03/27 06:32:59;;;;;;;2.38;0.20;;;20.30;36.30;;;;;;5050376;28;20107;-72
2021/03/27 06:35:45;;;;;;;2.75;0.47;;;20.30;36.90;;;;;;5040542;28;20028;-71
2021/03/27 06:38:35;;;;;;;0.20;0.20;;;20.30;36.20;;;;;;5071304;28;20020;-71
2021/03/27 06:41:17;;;;;;;0.63;0.10;;;20.40;36.60;;;;;;5071033;28;20131;-72
2021/03/27 06:44:07;;;;;;;0.00;0.00;;;20.40;36.70;;;;;;5041112;28;20451;-70
2021/03/27 06:46:51;;;;;;;0.22;0.13;;;20.40;36.60;;;;;;5070722;28;20079;-75
2021/03/27 06:49:26;;;;;;;1.85;0.45;;;20.50;36.60;;;;;;5081163;28;20017;-75
2021/03/27 06:52:15;;;;;;;1.75;0.20;;;20.60;36.50;;;;;;5054061;28;20025;-75
2021/03/27 06:54:50;;;;;;;0.20;0.20;;;20.70;36.60;;;;;;5055763;28;20099;-74
2021/03/27 06:57:30;;;;;;;0.30;0.20;;;20.80;36.40;;;;;;5069139;28;20036;-73
2021/03/27 07:00:10;;;;;;;0.00;0.00;;;20.90;36.20;;;;;;5058358;28;20075;-74
2021/03/27 07:03:03;;;;;;;0.45;0.10;;;21.00;36.10;;;;;;5079446;28;20028;-74
2021/03/27 07:05:53;;;;;;;0.98;0.32;;;21.10;36.00;;;;;;5064053;28;20083;-74
2021/03/27 07:08:34;;;;;;;0.00;0.00;;;21.30;36.00;;;;;;5052528;28;20024;-74
2021/03/27 07:11:41;;;;;;;0.10;0.10;;;21.40;35.70;;;;;;5054675;28;20488;-74
2021/03/27 07:14:44;;;;;;;1.73;0.30;;;21.50;35.60;;;;;;5010731;28;20529;-74
2021/03/27 07:17:18;;;;;;;0.32;0.32;;;21.60;35.30;;;;;;4997709;28;20021;-75
2021/03/27 07:20:28;;;;;;;1.08;0.52;;;21.70;34.90;;;;;;5005289;28;20060;-71
2021/03/27 07:23:15;;;;;;;3.72;0.40;;;21.70;34.80;;;;;;5004274;28;20669;-71
2021/03/27 07:25:51;;;;;;;3.63;0.50;;;21.80;35.00;;;;;;5007254;28;20125;-71
2021/03/27 07:28:46;;;;;;;2.65;0.55;;;21.80;34.80;;;;;;4992946;28;20030;-71
2021/03/27 07:31:32;;;;;;;2.35;0.60;;;21.80;34.60;;;;;;4994319;28;20133;-71
2021/03/27 07:34:36;;;;;;;1.38;0.43;;;21.80;34.20;;;;;;4993687;28;20022;-71
2021/03/27 07:37:10;;;;;;;0.38;0.38;;;21.80;34.60;;;;;;5003114;28;20081;-71
2021/03/27 07:40:00;;;;;;;0.77;0.47;;;21.80;34.50;;;;;;4996571;28;20030;-72
2021/03/27 07:43:00;;;;;;;2.88;0.45;;;21.80;34.30;;;;;;5029802;28;20064;-71
2021/03/27 07:45:40;;;;;;;1.52;0.10;;;21.80;34.60;;;;;;5015036;28;20107;-71
2021/03/27 07:48:40;;;;;;;3.47;0.40;;;21.90;34.80;;;;;;5017547;28;20421;-71
2021/03/27 07:51:25;;;;;;;0.70;0.40;;;21.90;34.70;;;;;;5054219;28;20040;-72
2021/03/27 07:54:24;;;;;;;0.80;0.32;;;21.90;34.20;;;;;;5056780;28;20031;-71
2021/03/27 07:57:03;;;;;;;0.43;0.28;;;21.80;34.50;;;;;;5081614;28;20103;-71
2021/03/27 07:59:46;;;;;;;0.22;0.08;;;21.80;35.20;;;;;;5070678;28;20029;-72
2021/03/27 08:02:56;;;;;;;0.15;0.15;;;21.90;34.60;;;;;;5086328;28;20162;-73
2021/03/27 08:05:55;;;;;;;0.45;0.25;;;21.90;34.70;;;;;;4972908;28;20031;-75
2021/03/27 08:08:51;;;;;;;0.13;0.08;;;22.00;34.90;;;;;;4957284;28;20138;-75
2021/03/27 08:11:31;;;;;;;1.33;0.30;;;22.00;35.00;;;;;;4985975;28;20150;-77
2021/03/27 08:14:11;;;;;;;0.85;0.20;;;21.90;34.70;;;;;;4987071;28;20486;-76
2021/03/27 08:16:52;;;;;;;4.88;0.90;;;21.90;34.50;;;;;;4981494;28;20466;-75
2021/03/27 08:19:45;;;;;;;0.85;0.40;;;21.80;34.30;;;;;;4984418;28;20066;-74
2021/03/27 08:22:22;;;;;;;1.63;0.50;;;21.90;34.60;;;;;;4982248;28;20034;-75
2021/03/27 08:25:42;;;;;;;0.88;0.47;;;21.90;34.20;;;;;;4993441;28;20465;-75
2021/03/27 08:28:35;;;;;;;0.00;0.00;;;21.90;34.40;;;;;;4954693;29;20528;-75
2021/03/27 08:31:32;;;;;;;0.75;0.50;;;22.00;34.60;;;;;;4948827;28;20040;-71
2021/03/27 08:34:28;;;;;;;3.83;0.75;;;22.00;34.20;;;;;;4936590;28;20128;-75
2021/03/27 08:37:12;;;;;;;1.38;0.45;;;22.00;34.30;;;;;;4961129;28;20047;-70
2021/03/27 08:39:42;;;;;;;1.40;0.80;;;22.00;34.00;;;;;;4958522;28;20030;-75
2021/03/27 08:42:14;;;;;;;0.40;0.35;;;22.00;34.30;;;;;;4974163;28;20075;-72
2021/03/27 08:45:07;;;;;;;6.85;0.55;;;22.10;34.40;;;;;;5011960;28;20112;-72
2021/03/27 08:47:38;;;;;;;7.03;0.70;;;22.10;34.00;;;;;;4995692;28;20575;-71
2021/03/27 08:50:31;;;;;;;0.95;0.45;;;22.10;34.10;;;;;;4994592;28;20209;-71
2021/03/27 08:53:16;;;;;;;2.33;0.52;;;22.20;34.20;;;;;;5007383;28;20045;-71
2021/03/27 08:56:08;;;;;;;0.65;0.20;;;22.30;34.30;;;;;;4996397;28;20125;-71
2021/03/27 08:58:50;;;;;;;3.65;0.52;;;22.30;34.30;;;;;;4993244;28;20117;-72
2021/03/27 09:01:57;;;;;;;0.40;0.20;;;22.40;34.40;;;;;;5003609;28;20550;-72
2021/03/27 09:05:00;;;;;;;2.75;0.70;;;22.40;34.30;;;;;;4976597;28;20042;-72
2021/03/27 09:07:29;;;;;;;1.38;0.40;;;22.40;34.20;;;;;;4966111;28;20034;-72
2021/03/27 09:10:02;;;;;;;1.98;0.28;;;22.50;34.20;;;;;;4989571;28;20031;-72
2021/03/27 09:12:52;;;;;;;0.10;0.10;;;22.50;34.20;;;;;;4965431;28;20031;-76
2021/03/27 09:15:54;;;;;;;0.03;0.00;;;22.50;34.30;;;;;;4968916;28;20042;-76
2021/03/27 09:18:40;;;;;;;0.73;0.40;;;22.50;34.20;;;;;;4971970;28;20022;-76
2021/03/27 09:21:09;;;;;;;1.15;0.45;;;22.60;34.20;;;;;;4976572;28;20038;-76
2021/03/27 09:23:50;;;;;;;0.40;0.40;;;22.60;34.20;;;;;;4978448;28;20039;-76
2021/03/27 09:26:44;;;;;;;0.80;0.40;;;22.60;34.30;;;;;;4966753;28;20072;-75
2021/03/27 09:29:27;;;;;;;1.75;0.50;;;22.60;34.20;;;;;;4984740;28;20042;-75
2021/03/27 09:32:06;;;;;;;1.17;0.52;;;22.60;34.10;;;;;;4974728;28;20545;-75
2021/03/27 09:34:47;;;;;;;3.03;0.60;;;22.60;34.10;;;;;;4972718;28;20498;-77
2021/03/27 09:37:27;;;;;;;4.50;0.43;;;22.60;34.00;;;;;;4982646;28;20031;-76
2021/03/27 09:40:13;;;;;;;1.90;0.40;;;22.70;34.00;;;;;;4983157;28;20372;-76
2021/03/27 09:43:06;;;;;;;0.52;0.30;;;22.70;33.90;;;;;;5074273;28;20036;-76
2021/03/27 09:46:02;;;;;;;3.50;0.63;;;22.70;33.80;;;;;;5073244;28;20036;-76
2021/03/27 09:48:32;;;;;;;0.85;0.45;;;22.80;33.70;;;;;;5063190;28;20403;-75
2021/03/27 09:51:09;;;;;;;1.63;0.52;;;22.80;33.60;;;;;;5086100;28;20456;-75
2021/03/27 09:53:47;;;;;;;0.47;0.30;;;22.80;33.40;;;;;;5057611;28;20067;-75
2021/03/27 09:56:26;;;;;;;0.43;0.30;;;22.80;33.30;;;;;;5072322;28;20032;-75
2021/03/27 09:59:23;;;;;;;0.55;0.20;;;22.80;33.50;;;;;;5091962;28;20396;-75
2021/03/27 10:01:55;;;;;;;1.23;0.40;;;22.80;33.50;;;;;;5073847;28;20032;-75
2021/03/27 10:04:24;;;;;;;1.33;0.28;;;22.90;33.20;;;;;;5074280;28;20099;-75
2021/03/27 10:07:30;;;;;;;1.55;0.63;;;22.90;33.30;;;;;;5074853;28;20016;-72
2021/03/27 10:10:18;;;;;;;1.20;0.38;;;23.00;33.40;;;;;;4993789;28;20038;-73
2021/03/27 10:13:21;;;;;;;0.57;0.30;;;23.00;33.00;;;;;;4994255;28;20121;-72
2021/03/27 10:15:54;;;;;;;0.70;0.22;;;23.00;32.90;;;;;;4962417;28;20389;-72
2021/03/27 10:18:41;;;;;;;1.45;0.47;;;23.10;33.10;;;;;;4920366;28;20042;-72
2021/03/27 10:21:37;;;;;;;0.55;0.47;;;23.10;33.20;;;;;;4932049;29;20082;-72
2021/03/27 10:24:05;;;;;;;2.35;0.55;;;23.10;33.00;;;;;;4947036;29;20071;-73
2021/03/27 10:26:43;;;;;;;1.88;0.22;;;23.10;32.50;;;;;;4955327;28;20027;-73
2021/03/27 10:29:44;;;;;;;0.95;0.40;;;23.00;32.50;;;;;;4928362;29;20058;-72
2021/03/27 10:32:30;;;;;;;0.50;0.50;;;23.00;32.70;;;;;;4945088;29;20030;-72
2021/03/27 10:34:59;;;;;;;0.73;0.20;;;23.00;32.60;;;;;;4943159;28;20028;-72
2021/03/27 10:37:54;;;;;;;1.60;0.45;;;23.00;32.70;;;;;;4927965;29;20043;-72
2021/03/27 10:40:50;;;;;;;1.00;0.40;;;23.00;32.80;;;;;;4950264;28;20483;-76
2021/03/27 10:43:30;;;;;;;1.30;0.50;;;23.10;32.80;;;;;;4948271;28;20164;-77
2021/03/27 10:45:59;;;;;;;0.10;0.10;;;23.20;32.80;;;;;;4975242;28;20431;-76
2021/03/27 10:48:40;;;;;;;0.57;0.17;;;23.20;32.40;;;;;;4993428;28;20224;-77
2021/03/27 10:51:18;;;;;;;0.77;0.43;;;23.20;32.30;;;;;;5007477;28;20044;-76
2021/03/27 10:54:14;;;;;;;3.28;0.22;;;23.30;31.80;;;;;;5059276;28;20062;-76
2021/03/27 10:56:56;;;;;;;;;;;23.40;32.10;;;;;;5085945;28;20032;-76
2021/03/27 10:59:52;;;;;;;0.75;0.28;;;23.40;32.30;;;;;;5073992;28;19908;-76
2021/03/27 11:02:33;;;;;;;0.25;0.20;;;23.50;31.60;;;;;;5088444;28;20032;-76
2021/03/27 11:05:21;;;;;;;1.88;0.63;;;23.60;31.50;;;;;;5079266;28;20024;-76
2021/03/27 11:08:21;;;;;;;0.30;0.30;;;23.70;31.40;;;;;;5061051;28;20044;-76
2021/03/27 11:10:49;;;;;;;0.85;0.65;;;23.80;31.50;;;;;;5052328;28;20064;-75
2021/03/27 11:13:37;;;;;;;0.28;0.20;;;23.90;31.40;;;;;;5083869;28;20020;-76
2021/03/27 11:16:16;;;;;;;1.05;0.43;;;23.90;31.40;;;;;;5090471;28;20035;-75
2021/03/27 11:19:15;;;;;;;1.13;0.50;;;24.00;31.30;;;;;;5055995;28;20511;-75
2021/03/27 11:22:18;;;;;;;0.00;0.00;;;24.00;31.00;;;;;;5072546;28;20046;-76
2021/03/27 11:25:21;;;;;;;0.75;0.20;;;24.10;31.10;;;;;;5055129;28;20035;-75
2021/03/27 11:28:03;;;;;;;0.38;0.30;;;24.10;30.90;;;;;;5074542;28;20081;-76
2021/03/27 11:30:56;;;;;;;0.15;0.15;;;24.00;30.70;;;;;;5065405;28;20526;-76
2021/03/27 11:33:50;;;;;;;0.10;0.10;;;24.00;30.50;;;;;;5074772;28;20056;-75
2021/03/27 11:36:23;;;;;;;0.20;0.20;;;24.00;30.60;;;;;;5054500;28;20032;-75
2021/03/27 11:39:13;;;;;;;6.82;0.20;;;24.00;30.70;;;;;;5043910;28;20037;-76
2021/03/27 11:41:54;;;;;;;2.45;0.40;;;24.00;30.80;;;;;;5063916;28;20154;-75
2021/03/27 11:44:53;;;;;;;0.13;0.10;;;24.00;30.60;;;;;;5055344;28;20100;-76
2021/03/27 11:47:37;;;;;;;0.20;0.20;;;24.00;30.80;;;;;;5085916;28;20074;-75
2021/03/27 11:50:12;;;;;;;1.30;0.20;;;24.00;30.80;;;;;;5060181;28;20020;-76
2021/03/27 11:53:20;;;;;;;0.28;0.28;;;24.00;30.80;;;;;;5065690;28;20087;-74
2021/03/27 11:56:04;;;;;;;0.88;0.20;;;24.10;30.80;;;;;;4994126;28;20088;-75
2021/03/27 12:01:34;;;;;;;0.50;0.20;;;24.10;30.70;;;;;;4988212;28;20050;-76
2021/03/27 12:04:05;;;;;;;2.88;0.68;;;24.20;30.60;;;;;;4969652;28;20034;-75
2021/03/27 12:06:57;;;;;;;1.38;0.68;;;24.20;30.40;;;;;;4994048;28;20061;-76
2021/03/27 12:09:25;;;;;;;0.25;0.20;;;24.30;30.40;;;;;;4916650;29;20055;-75
2021/03/27 12:11:59;;;;;;;0.13;0.13;;;24.30;30.30;;;;;;4916186;29;20036;-75
2021/03/27 12:14:53;;;;;;;0.38;0.25;;;24.30;30.20;;;;;;4885247;29;20048;-75
2021/03/27 12:17:46;;;;;;;0.35;0.17;;;24.30;30.00;;;;;;4907617;29;20064;-76
2021/03/27 12:20:26;;;;;;;1.38;0.35;;;24.30;30.00;;;;;;4918275;29;20036;-75
2021/03/27 12:22:57;;;;;;;0.45;0.13;;;24.30;29.80;;;;;;4917050;29;20036;-76
2021/03/27 12:25:27;;;;;;;2.47;0.30;;;24.30;29.50;;;;;;4881441;29;20050;-76
2021/03/27 12:28:00;;;;;;;0.00;0.00;;;24.20;29.70;;;;;;4926748;29;20047;-76
2021/03/27 12:30:36;;;;;;;0.80;0.10;;;24.20;29.70;;;;;;4913296;29;20059;-76
2021/03/27 12:33:11;;;;;;;0.08;0.08;;;24.10;29.70;;;;;;4975478;28;20097;-76
2021/03/27 12:35:55;;;;;;;0.73;0.60;;;24.00;29.70;;;;;;4992862;28;20038;-76
2021/03/27 12:38:29;;;;;;;1.48;0.38;;;24.00;29.50;;;;;;5001227;28;20510;-76
2021/03/27 12:41:07;;;;;;;1.10;0.40;;;24.00;29.60;;;;;;4964299;28;20042;-76
2021/03/27 12:43:35;;;;;;;0.90;0.20;;;24.00;29.70;;;;;;4977428;28;20417;-76
2021/03/27 12:46:00;;;;;;;0.00;0.00;;;24.00;29.80;;;;;;4994192;28;20033;-76
2021/03/27 12:48:44;;;;;;;1.55;0.25;;;24.00;29.90;;;;;;5049906;28;20028;-76
2021/03/27 12:51:42;;;;;;;0.30;0.30;;;24.00;29.90;;;;;;5077008;28;20036;-76
2021/03/27 12:54:29;;;;;;;0.52;0.17;;;24.00;29.80;;;;;;5038013;28;20029;-76
2021/03/27 12:57:14;;;;;;;1.25;0.65;;;24.00;29.70;;;;;;5060573;28;20037;-76
2021/03/27 12:59:59;;;;;;;0.10;0.10;;;24.00;29.80;;;;;;5070904;28;20544;-75
2021/03/27 13:02:31;;;;;;;2.10;0.57;;;24.10;29.80;;;;;;5041293;28;20044;-70
2021/03/27 13:05:02;;;;;;;1.33;0.32;;;24.20;29.50;;;;;;5058400;28;20031;-71
2021/03/27 13:07:48;;;;;;;2.45;0.20;;;24.20;29.30;;;;;;5040821;28;20028;-73
2021/03/27 13:10:25;;;;;;;0.30;0.30;;;24.30;29.30;;;;;;5041805;28;20021;-72
2021/03/27 13:13:46;;;;;;;0.10;0.10;;;24.30;29.30;;;;;;5040669;28;20025;-72
2021/03/27 13:16:16;;;;;;;0.10;0.10;;;24.40;29.20;;;;;;4973441;28;20042;-72
2021/03/27 13:18:51;;;;;;;1.52;0.40;;;24.50;28.80;;;;;;4955615;28;20122;-72
2021/03/27 13:21:57;;;;;;;0.00;0.00;;;24.60;28.80;;;;;;4969923;28;20085;-72
2021/03/27 13:24:24;;;;;;;0.10;0.10;;;24.60;28.50;;;;;;4969564;28;20039;-72
2021/03/27 13:26:59;;;;;;;0.20;0.20;;;24.70;28.40;;;;;;4958796;28;20079;-72
2021/03/27 13:29:33;;;;;;;0.05;0.05;;;24.70;28.50;;;;;;4958613;28;20027;-72
2021/03/27 13:32:25;;;;;;;0.52;0.20;;;24.70;28.50;;;;;;4923670;29;20087;-72
2021/03/27 13:35:01;;;;;;;1.33;0.30;;;24.70;28.40;;;;;;4966766;28;20038;-72
2021/03/27 13:37:31;;;;;;;0.10;0.03;;;24.70;28.60;;;;;;4948995;28;20039;-72
2021/03/27 13:40:14;;;;;;;1.45;0.20;;;24.70;28.70;;;;;;4955398;28;20066;-73
2021/03/27 13:43:03;;;;;;;0.20;0.20;;;24.60;28.50;;;;;;4972490;28;20046;-72
2021/03/27 13:45:29;;;;;;;0.13;0.13;;;24.60;28.60;;;;;;4955286;28;20471;-73
2021/03/27 13:48:02;;;;;;;0.40;0.40;;;24.50;28.70;;;;;;4971607;28;20106;-73
2021/03/27 13:50:45;;;;;;;0.10;0.10;;;24.50;28.80;;;;;;5007778;28;20048;-72
2021/03/27 13:53:15;;;;;;;2.00;0.25;;;24.40;29.00;;;;;;5054934;28;20027;-72
2021/03/27 13:56:03;;;;;;;1.27;0.22;;;24.40;28.50;;;;;;5036699;28;20033;-73
2021/03/27 13:58:54;;;;;;;0.45;0.10;;;24.30;28.40;;;;;;5071766;28;20100;-73
2021/03/27 14:01:28;;;;;;;0.93;0.30;;;24.30;28.80;;;;;;5036148;28;20091;-73
2021/03/27 14:04:18;;;;;;;1.27;0.10;;;24.40;29.10;;;;;;5036002;28;20044;-74
2021/03/27 14:07:12;;;;;;;0.98;0.22;;;24.40;28.80;;;;;;5039875;28;20401;-74
2021/03/27 14:09:56;;;;;;;0.30;0.30;;;24.40;28.60;;;;;;4960614;28;20038;-73
2021/03/27 14:12:25;;;;;;;1.55;0.40;;;24.50;28.40;;;;;;4975511;28;20027;-73
2021/03/27 14:15:03;;;;;;;2.92;0.57;;;24.50;28.10;;;;;;4999393;28;20054;-72
2021/03/27 14:17:47;;;;;;;0.35;0.17;;;24.60;28.00;;;;;;4985360;28;20034;-72